Time;durP1;ratioP1;P1;durP2;ratioP2;P2;SDS_P1;SDS_P2;PMS_P1;PMS_P2;Temp;Humidity;BMP_temperature;BMP_pressure;BME280_temperature;BME280_humidity;BME280_pressure;Samples;Min_cycle;Max_cycle;Signal;HPM_P1;HPM_P2
2023/08/04 00:00:29;;;;;;;6.55;2.95;;;16.20;99.90;;;;;;5070116;28;20032;-51
2023/08/04 00:02:55;;;;;;;4.03;1.80;;;16.10;99.90;;;;;;5070692;28;20103;-53
2023/08/04 00:05:21;;;;;;;3.35;2.00;;;16.10;99.90;;;;;;5070568;28;20039;-56
2023/08/04 00:07:46;;;;;;;7.93;1.80;;;16.10;99.90;;;;;;5070293;28;20025;-51
2023/08/04 00:10:12;;;;;;;3.45;1.92;;;16.20;99.90;;;;;;5070396;28;20020;-49
2023/08/04 00:12:38;;;;;;;3.38;1.70;;;16.20;99.90;;;;;;5070338;28;20116;-53
2023/08/04 00:15:05;;;;;;;7.10;2.25;;;16.10;99.90;;;;;;5070464;28;20055;-52
2023/08/04 00:17:33;;;;;;;4.97;1.83;;;16.20;99.90;;;;;;5070283;28;20028;-53
2023/08/04 00:19:58;;;;;;;3.55;1.92;;;16.20;99.90;;;;;;5070423;28;20024;-50
2023/08/04 00:22:25;;;;;;;3.53;2.08;;;16.20;99.90;;;;;;5070102;28;20028;-54
2023/08/04 00:24:52;;;;;;;5.38;1.80;;;16.20;99.90;;;;;;5070236;28;20472;-48
2023/08/04 00:27:18;;;;;;;3.40;1.80;;;16.20;99.90;;;;;;5070633;28;20056;-49
2023/08/04 00:29:43;;;;;;;2.80;1.58;;;16.20;99.90;;;;;;5070216;28;20734;-53
2023/08/04 00:32:09;;;;;;;4.03;1.80;;;16.20;99.90;;;;;;5070196;28;20079;-53
2023/08/04 00:34:34;;;;;;;5.07;1.83;;;16.10;99.90;;;;;;5069888;28;20202;-51
2023/08/04 00:37:00;;;;;;;3.83;1.80;;;16.10;99.90;;;;;;5070140;28;20020;-50
2023/08/04 00:39:26;;;;;;;4.82;1.95;;;16.10;99.90;;;;;;5069999;28;20044;-49
2023/08/04 00:41:51;;;;;;;4.57;1.65;;;16.10;99.90;;;;;;5070093;28;20029;-48
2023/08/04 00:44:17;;;;;;;6.32;1.80;;;16.10;99.90;;;;;;5070180;28;20024;-48
2023/08/04 00:46:43;;;;;;;2.95;1.58;;;16.00;99.90;;;;;;5069615;28;20504;-48
2023/08/04 00:49:09;;;;;;;4.72;2.13;;;16.00;99.90;;;;;;5069896;28;20119;-48
2023/08/04 00:51:36;;;;;;;7.53;2.25;;;16.00;99.90;;;;;;5069707;28;20387;-48
2023/08/04 00:54:03;;;;;;;5.10;2.00;;;16.00;99.90;;;;;;5069653;28;20032;-54
2023/08/04 00:56:30;;;;;;;2.75;1.70;;;16.00;99.90;;;;;;5069650;28;20484;-58
2023/08/04 00:58:57;;;;;;;3.72;1.60;;;16.00;99.90;;;;;;5070051;28;20126;-54
2023/08/04 01:01:23;;;;;;;4.32;1.90;;;16.00;99.90;;;;;;5069879;28;20177;-55
2023/08/04 01:03:49;;;;;;;5.30;2.15;;;15.90;99.90;;;;;;5069755;28;20053;-48
2023/08/04 01:06:20;;;;;;;8.18;2.22;;;15.90;99.90;;;;;;5069769;28;20072;-48
2023/08/04 01:08:55;;;;;;;3.53;2.08;;;15.90;99.90;;;;;;5069681;28;20032;-48
2023/08/04 01:11:28;;;;;;;3.88;1.67;;;15.90;99.90;;;;;;5071206;28;20037;-50
2023/08/04 01:13:54;;;;;;;4.53;1.83;;;16.00;99.90;;;;;;5074270;28;20131;-51
2023/08/04 01:16:20;;;;;;;4.60;1.85;;;16.00;99.90;;;;;;5074765;28;20370;-54
2023/08/04 01:18:46;;;;;;;3.20;1.80;;;16.00;99.90;;;;;;5073626;28;20432;-51
2023/08/04 01:21:11;;;;;;;4.40;2.10;;;16.00;99.90;;;;;;5073595;28;20020;-49
2023/08/04 01:23:37;;;;;;;4.28;1.73;;;16.00;99.90;;;;;;5073668;28;20047;-54
2023/08/04 01:26:06;;;;;;;2.78;1.58;;;16.00;99.90;;;;;;5073716;28;20046;-57
2023/08/04 01:28:33;;;;;;;;;;;16.00;99.90;;;;;;5074128;28;20028;-56
2023/08/04 01:31:00;;;;;;;2.25;1.55;;;16.00;99.90;;;;;;5073287;28;19916;-55
2023/08/04 01:33:27;;;;;;;3.35;1.70;;;16.00;99.90;;;;;;5073293;28;20025;-55
2023/08/04 01:35:53;;;;;;;3.58;1.80;;;16.00;99.90;;;;;;5073370;28;20153;-54
2023/08/04 01:38:18;;;;;;;2.90;1.70;;;16.00;99.90;;;;;;5073413;28;20477;-52
2023/08/04 01:40:44;;;;;;;4.75;1.80;;;16.00;99.90;;;;;;5073510;28;20024;-50
2023/08/04 01:43:09;;;;;;;3.60;1.95;;;16.00;99.90;;;;;;5073308;28;20037;-49
2023/08/04 01:45:35;;;;;;;3.53;1.98;;;16.00;99.90;;;;;;5073129;28;20051;-51
2023/08/04 01:48:01;;;;;;;3.97;1.80;;;16.00;99.90;;;;;;5073100;28;20070;-53
2023/08/04 01:50:26;;;;;;;4.13;1.80;;;16.00;99.90;;;;;;5072966;28;20107;-57
2023/08/04 01:52:53;;;;;;;3.90;1.70;;;16.00;99.90;;;;;;5073248;28;20416;-58
2023/08/04 01:55:19;;;;;;;6.20;2.22;;;15.90;99.90;;;;;;5073026;28;20450;-52
2023/08/04 01:57:44;;;;;;;2.22;1.63;;;15.90;99.90;;;;;;5073031;28;20533;-53
2023/08/04 02:00:11;;;;;;;3.28;1.58;;;15.90;99.90;;;;;;5072892;28;20040;-52
2023/08/04 02:02:36;;;;;;;3.47;1.98;;;15.80;99.90;;;;;;5067429;28;20478;-50
2023/08/04 02:05:02;;;;;;;2.97;1.85;;;15.80;99.90;;;;;;5064334;28;20035;-51
2023/08/04 02:07:28;;;;;;;4.32;1.90;;;15.80;99.90;;;;;;5071424;28;20134;-48
2023/08/04 02:09:53;;;;;;;3.15;1.40;;;15.80;99.90;;;;;;5072616;28;20033;-53
2023/08/04 02:12:19;;;;;;;5.70;2.20;;;15.80;99.90;;;;;;5072630;28;20065;-51
2023/08/04 02:14:44;;;;;;;3.97;1.90;;;15.70;99.90;;;;;;5072741;28;20082;-54
2023/08/04 02:17:12;;;;;;;3.63;1.63;;;15.70;99.90;;;;;;5072739;28;20040;-55
2023/08/04 02:19:37;;;;;;;4.13;2.20;;;15.70;99.90;;;;;;5072859;28;20146;-53
2023/08/04 02:22:03;;;;;;;5.57;2.10;;;15.70;99.90;;;;;;5072534;28;20486;-49
2023/08/04 02:24:29;;;;;;;4.20;1.77;;;15.70;99.90;;;;;;5072633;28;20017;-57
2023/08/04 02:26:55;;;;;;;2.85;1.63;;;15.60;99.90;;;;;;5072432;28;20025;-59
2023/08/04 02:29:20;;;;;;;2.97;1.70;;;15.60;99.90;;;;;;5072266;28;20404;-55
2023/08/04 02:31:46;;;;;;;4.85;2.10;;;15.60;99.90;;;;;;5072321;28;20025;-52
2023/08/04 02:34:12;;;;;;;6.43;1.92;;;15.70;99.90;;;;;;5072392;28;20102;-48
2023/08/04 02:36:38;;;;;;;4.70;2.00;;;15.60;99.90;;;;;;5071773;28;20028;-51
2023/08/04 02:39:03;;;;;;;5.50;2.00;;;15.50;99.90;;;;;;5072144;28;20032;-54
2023/08/04 02:41:29;;;;;;;5.20;2.13;;;15.50;99.90;;;;;;5072116;28;20439;-53
2023/08/04 02:43:55;;;;;;;6.93;2.20;;;15.50;99.90;;;;;;5071845;28;20052;-51
2023/08/04 02:46:22;;;;;;;3.63;1.65;;;15.50;99.90;;;;;;5072020;28;20029;-56
2023/08/04 02:48:48;;;;;;;4.32;2.10;;;15.50;99.90;;;;;;5072173;28;20078;-49
2023/08/04 02:51:14;;;;;;;3.67;1.58;;;15.50;99.90;;;;;;5071821;28;20032;-51
2023/08/04 02:53:43;;;;;;;7.53;2.00;;;15.50;99.90;;;;;;5071692;28;20021;-54
2023/08/04 02:56:18;;;;;;;2.42;1.60;;;15.50;99.90;;;;;;5071879;28;20047;-57
2023/08/04 02:58:45;;;;;;;4.05;1.95;;;15.50;99.90;;;;;;5071673;28;20530;-54
2023/08/04 03:01:12;;;;;;;2.55;1.70;;;15.50;99.90;;;;;;5071663;28;20069;-57
2023/08/04 03:03:38;;;;;;;3.30;1.80;;;15.60;99.90;;;;;;5071747;28;20106;-54
2023/08/04 03:06:04;;;;;;;5.63;2.13;;;15.60;99.90;;;;;;5071515;28;20409;-56
2023/08/04 03:08:33;;;;;;;7.30;1.90;;;15.50;99.90;;;;;;5071531;28;20094;-56
2023/08/04 03:10:59;;;;;;;4.03;1.88;;;15.50;99.90;;;;;;5071398;28;20511;-58
2023/08/04 03:13:25;;;;;;;3.65;1.92;;;15.60;99.90;;;;;;5071286;28;20401;-58
2023/08/04 03:15:59;;;;;;;6.90;2.08;;;15.60;99.90;;;;;;5071525;28;20123;-50
2023/08/04 03:18:24;;;;;;;3.33;1.92;;;15.60;99.90;;;;;;5071572;28;20017;-52
2023/08/04 03:20:50;;;;;;;4.28;2.20;;;15.60;99.90;;;;;;5071184;28;20054;-50
2023/08/04 03:23:16;;;;;;;3.35;1.83;;;15.60;99.90;;;;;;5071357;28;20343;-53
2023/08/04 03:25:42;;;;;;;5.18;1.92;;;15.60;99.90;;;;;;5071248;28;20024;-54
2023/08/04 03:28:07;;;;;;;6.72;2.10;;;15.60;99.90;;;;;;5070327;28;20163;-57
2023/08/04 03:30:33;;;;;;;2.95;1.73;;;15.60;99.90;;;;;;5070990;28;20079;-55
2023/08/04 03:32:59;;;;;;;5.80;1.92;;;15.60;99.90;;;;;;5071229;28;20021;-52
2023/08/04 03:35:24;;;;;;;2.88;1.67;;;15.60;99.90;;;;;;5070298;28;20132;-48
2023/08/04 03:37:50;;;;;;;3.33;1.95;;;15.60;99.90;;;;;;5071096;28;20016;-49
2023/08/04 03:40:16;;;;;;;4.03;2.05;;;15.60;99.90;;;;;;5070834;28;20066;-49
2023/08/04 03:42:41;;;;;;;3.97;1.90;;;15.60;99.90;;;;;;5071013;28;20012;-53
2023/08/04 03:45:07;;;;;;;3.20;1.80;;;15.60;99.90;;;;;;5071042;28;20082;-52
2023/08/04 03:47:34;;;;;;;4.28;2.20;;;15.60;99.90;;;;;;5070877;28;20076;-55
2023/08/04 03:50:04;;;;;;;3.65;2.42;;;15.60;99.90;;;;;;5069543;28;20094;-52
2023/08/04 03:52:30;;;;;;;3.13;1.80;;;15.60;99.90;;;;;;5070633;28;20260;-57
2023/08/04 03:54:55;;;;;;;5.25;2.10;;;15.60;99.90;;;;;;5070850;28;20561;-56
2023/08/04 03:57:21;;;;;;;5.75;2.15;;;15.50;99.90;;;;;;5070554;28;20025;-51
2023/08/04 03:59:48;;;;;;;5.57;2.33;;;15.60;99.90;;;;;;5070795;28;20054;-54
2023/08/04 04:02:14;;;;;;;3.95;2.20;;;15.50;99.90;;;;;;5070604;28;20024;-54
2023/08/04 04:04:39;;;;;;;3.38;2.05;;;15.50;99.90;;;;;;5070468;28;20020;-53
2023/08/04 04:07:05;;;;;;;2.83;2.05;;;15.50;99.90;;;;;;5070664;28;20024;-55
2023/08/04 04:09:31;;;;;;;3.72;2.20;;;15.50;99.90;;;;;;5070309;28;20214;-56
2023/08/04 04:11:56;;;;;;;4.03;2.00;;;15.50;99.90;;;;;;5069351;28;20032;-53
2023/08/04 04:14:22;;;;;;;4.07;2.17;;;15.50;99.90;;;;;;5070160;28;20020;-50
2023/08/04 04:16:48;;;;;;;3.75;2.10;;;15.50;99.90;;;;;;5070580;28;20020;-50
2023/08/04 04:19:13;;;;;;;5.43;2.53;;;15.50;99.90;;;;;;5070469;28;20461;-53
2023/08/04 04:21:39;;;;;;;6.57;2.22;;;15.50;99.90;;;;;;5070473;28;20028;-53
2023/08/04 04:24:04;;;;;;;3.80;1.92;;;15.50;99.90;;;;;;5069179;28;20366;-52
2023/08/04 04:26:30;;;;;;;4.10;2.40;;;15.50;99.90;;;;;;5070865;28;20016;-53
2023/08/04 04:28:56;;;;;;;4.78;2.20;;;15.50;99.90;;;;;;5070748;28;20025;-53
2023/08/04 04:31:21;;;;;;;3.10;2.15;;;15.50;99.90;;;;;;5070372;28;20109;-53
2023/08/04 04:33:47;;;;;;;3.45;1.83;;;15.50;99.90;;;;;;5069942;28;20059;-52
2023/08/04 04:36:12;;;;;;;6.25;2.78;;;15.40;99.90;;;;;;5070096;28;20025;-53
2023/08/04 04:38:38;;;;;;;4.97;2.25;;;15.50;99.90;;;;;;5069928;28;20089;-52
2023/08/04 04:41:04;;;;;;;3.63;2.25;;;15.40;99.90;;;;;;5070076;28;20025;-57
2023/08/04 04:43:30;;;;;;;3.90;2.15;;;15.40;99.90;;;;;;5069774;28;20028;-53
2023/08/04 04:45:56;;;;;;;5.22;2.45;;;15.40;99.90;;;;;;5069941;28;20029;-52
2023/08/04 04:48:23;;;;;;;4.68;2.20;;;15.40;99.90;;;;;;5069906;28;20025;-54
2023/08/04 04:50:52;;;;;;;6.13;2.50;;;15.40;99.90;;;;;;5069902;28;20125;-58
2023/08/04 04:53:18;;;;;;;8.98;1.85;;;15.40;99.90;;;;;;5069675;28;20025;-58
2023/08/04 04:55:43;;;;;;;3.58;2.25;;;15.40;99.90;;;;;;5055353;28;20095;-53
2023/08/04 04:58:10;;;;;;;4.40;1.80;;;15.30;99.90;;;;;;5069658;28;20025;-55
2023/08/04 05:00:36;;;;;;;4.85;2.10;;;15.30;99.90;;;;;;5069477;28;20520;-53
2023/08/04 05:03:08;;;;;;;3.72;2.00;;;15.30;99.90;;;;;;5069677;28;20096;-55
2023/08/04 05:05:35;;;;;;;6.00;2.60;;;15.30;99.90;;;;;;5069255;28;20401;-54
2023/08/04 05:08:00;;;;;;;6.47;2.08;;;15.30;99.90;;;;;;5069547;28;20027;-54
2023/08/04 05:10:26;;;;;;;3.35;1.67;;;15.30;99.90;;;;;;5069125;28;20118;-54
2023/08/04 05:12:52;;;;;;;3.17;2.00;;;15.40;99.90;;;;;;5069460;28;20023;-57
2023/08/04 05:15:18;;;;;;;5.10;2.53;;;15.30;99.90;;;;;;5069726;28;20032;-52
2023/08/04 05:17:47;;;;;;;5.50;2.05;;;15.40;99.90;;;;;;5069598;28;20032;-57
2023/08/04 05:20:13;;;;;;;5.60;2.30;;;15.40;99.90;;;;;;5069641;28;20067;-61
2023/08/04 05:22:39;;;;;;;5.75;2.15;;;15.30;99.90;;;;;;5069328;28;20017;-52
2023/08/04 05:25:06;;;;;;;6.30;2.00;;;15.40;99.90;;;;;;5069404;28;20028;-53
2023/08/04 05:27:31;;;;;;;3.47;1.92;;;15.40;99.90;;;;;;5069493;28;20028;-56
2023/08/04 05:29:57;;;;;;;3.67;2.00;;;15.30;99.90;;;;;;5069610;28;20039;-53
2023/08/04 05:32:23;;;;;;;5.90;2.40;;;15.30;99.90;;;;;;5069428;28;20021;-56
2023/08/04 05:34:48;;;;;;;5.72;2.25;;;15.40;99.90;;;;;;5069121;28;20127;-55
2023/08/04 05:37:14;;;;;;;3.50;1.83;;;15.40;99.90;;;;;;5069336;28;20120;-53
2023/08/04 05:39:39;;;;;;;3.58;2.05;;;15.40;99.90;;;;;;5069214;28;20627;-56
2023/08/04 05:42:06;;;;;;;3.50;2.03;;;15.60;99.90;;;;;;5069309;28;20060;-56
2023/08/04 05:44:31;;;;;;;4.10;1.90;;;15.50;99.90;;;;;;5069524;28;20024;-54
2023/08/04 05:46:58;;;;;;;5.07;2.10;;;15.60;99.90;;;;;;5069395;28;20035;-56
2023/08/04 05:49:24;;;;;;;4.35;2.10;;;15.70;99.90;;;;;;5069291;28;20166;-57
2023/08/04 05:51:49;;;;;;;4.60;2.00;;;15.70;99.90;;;;;;5069125;28;20111;-54
2023/08/04 05:54:15;;;;;;;8.18;2.97;;;15.90;99.90;;;;;;5047918;28;20119;-57
2023/08/04 05:56:40;;;;;;;4.43;1.75;;;16.00;99.90;;;;;;5062552;28;20147;-58
2023/08/04 05:59:06;;;;;;;5.47;2.13;;;16.10;99.90;;;;;;5072948;28;20111;-57
2023/08/04 06:01:32;;;;;;;5.45;2.15;;;16.20;99.90;;;;;;5073102;28;20024;-54
2023/08/04 06:03:57;;;;;;;2.53;1.80;;;16.40;99.90;;;;;;5072863;28;20016;-56
2023/08/04 06:06:23;;;;;;;4.60;1.85;;;16.50;99.90;;;;;;5072833;28;20346;-57
2023/08/04 06:08:49;;;;;;;7.28;2.47;;;16.60;99.90;;;;;;5072835;28;20021;-56
2023/08/04 06:11:15;;;;;;;5.47;2.20;;;16.70;99.90;;;;;;5072861;28;20040;-57
2023/08/04 06:13:40;;;;;;;5.82;2.17;;;16.80;99.90;;;;;;5072674;28;20056;-55
2023/08/04 06:16:06;;;;;;;4.18;2.20;;;16.90;99.90;;;;;;5072754;28;20115;-52
2023/08/04 06:18:32;;;;;;;6.50;2.30;;;16.90;99.90;;;;;;5072912;28;20020;-57
2023/08/04 06:20:58;;;;;;;4.03;2.20;;;16.80;99.90;;;;;;5072570;28;20437;-55
2023/08/04 06:23:23;;;;;;;3.13;1.83;;;16.80;99.90;;;;;;5073102;28;20058;-57
2023/08/04 06:25:49;;;;;;;5.32;2.58;;;16.90;99.90;;;;;;5072648;28;20461;-54
2023/08/04 06:28:14;;;;;;;4.25;1.80;;;17.00;99.90;;;;;;5072777;28;20405;-54
2023/08/04 06:30:40;;;;;;;5.13;2.45;;;17.10;99.90;;;;;;5071165;28;20040;-54
2023/08/04 06:33:06;;;;;;;4.93;2.13;;;17.20;99.90;;;;;;5072427;28;20021;-56
2023/08/04 06:35:31;;;;;;;3.10;1.98;;;17.20;99.90;;;;;;5071936;28;20048;-56
2023/08/04 06:37:58;;;;;;;6.20;2.55;;;17.30;99.90;;;;;;5072401;28;20032;-54
2023/08/04 06:40:23;;;;;;;7.95;2.75;;;17.30;99.90;;;;;;5072331;28;20098;-57
2023/08/04 06:42:49;;;;;;;9.68;2.53;;;17.30;99.90;;;;;;5072374;28;20155;-57
2023/08/04 06:45:15;;;;;;;6.05;2.45;;;17.30;99.90;;;;;;5072369;28;20028;-56
2023/08/04 06:47:41;;;;;;;5.43;2.40;;;17.30;99.90;;;;;;5072234;28;20355;-55
2023/08/04 06:50:07;;;;;;;6.28;2.80;;;17.40;99.90;;;;;;5072070;28;20032;-57
2023/08/04 06:52:33;;;;;;;4.38;2.45;;;17.30;99.90;;;;;;5070710;28;20016;-56
2023/08/04 06:54:59;;;;;;;7.85;2.75;;;17.30;99.90;;;;;;5070781;28;20027;-55
2023/08/04 06:57:24;;;;;;;4.78;2.80;;;17.30;99.90;;;;;;5071945;28;20059;-55
2023/08/04 06:59:50;;;;;;;7.60;2.78;;;17.30;99.90;;;;;;5072195;28;20560;-58
2023/08/04 07:02:17;;;;;;;6.95;2.88;;;17.30;99.90;;;;;;5071618;28;20020;-58
2023/08/04 07:04:42;;;;;;;4.68;2.80;;;17.30;99.90;;;;;;5071860;28;20024;-57
2023/08/04 07:07:08;;;;;;;5.93;3.17;;;17.30;99.90;;;;;;5071665;28;20027;-55
2023/08/04 07:09:34;;;;;;;5.32;2.85;;;17.20;99.90;;;;;;5070393;28;20033;-54
2023/08/04 07:11:59;;;;;;;7.10;3.17;;;17.30;99.90;;;;;;5071406;28;20029;-55
2023/08/04 07:14:25;;;;;;;6.07;2.83;;;17.30;99.90;;;;;;5071271;28;20024;-57
2023/08/04 07:16:51;;;;;;;5.63;2.95;;;17.30;99.90;;;;;;5071368;28;20078;-53
2023/08/04 07:19:16;;;;;;;7.57;2.80;;;17.30;99.90;;;;;;5071142;28;20516;-56
2023/08/04 07:21:43;;;;;;;5.70;3.03;;;17.30;99.90;;;;;;5071222;28;20100;-58
2023/08/04 07:24:10;;;;;;;6.07;2.80;;;17.30;99.90;;;;;;5071354;28;20515;-57
2023/08/04 07:26:35;;;;;;;7.30;2.92;;;17.40;99.90;;;;;;5071218;28;20027;-53
2023/08/04 07:29:01;;;;;;;6.63;2.78;;;17.40;99.90;;;;;;5071392;28;20033;-52
2023/08/04 07:31:27;;;;;;;7.97;2.92;;;17.30;99.90;;;;;;5071227;28;20393;-54
2023/08/04 07:33:52;;;;;;;8.02;2.95;;;17.40;99.90;;;;;;5070926;28;20040;-55
2023/08/04 07:36:18;;;;;;;6.68;3.10;;;17.40;99.90;;;;;;5071403;28;20024;-52
2023/08/04 07:38:44;;;;;;;7.78;3.30;;;17.50;99.90;;;;;;5071228;28;20020;-52
2023/08/04 07:41:18;;;;;;;6.78;3.15;;;17.60;99.90;;;;;;5071370;28;20020;-52
2023/08/04 07:43:44;;;;;;;7.93;2.67;;;17.60;99.90;;;;;;5071112;28;20026;-53
2023/08/04 07:46:24;;;;;;;5.32;2.72;;;17.60;99.90;;;;;;5070971;28;20114;-51
2023/08/04 07:48:51;;;;;;;6.43;2.70;;;17.60;99.90;;;;;;5070923;28;20034;-57
2023/08/04 07:51:17;;;;;;;7.13;3.00;;;17.60;99.90;;;;;;5070757;28;20127;-57
2023/08/04 07:53:42;;;;;;;7.95;2.88;;;17.50;99.90;;;;;;5070691;28;20128;-53
2023/08/04 07:56:08;;;;;;;6.22;2.97;;;17.50;99.90;;;;;;5069457;28;20078;-54
2023/08/04 07:58:33;;;;;;;5.88;2.60;;;17.40;99.90;;;;;;5071032;28;20017;-53
2023/08/04 08:00:59;;;;;;;5.75;2.90;;;17.40;99.90;;;;;;5070389;28;20411;-57
2023/08/04 08:03:25;;;;;;;5.80;3.60;;;17.40;99.90;;;;;;5069204;28;20071;-54
2023/08/04 08:05:50;;;;;;;7.82;3.40;;;17.30;99.90;;;;;;5070325;28;20592;-54
2023/08/04 08:08:17;;;;;;;7.75;3.00;;;17.30;99.90;;;;;;5070540;28;20020;-54
2023/08/04 08:10:43;;;;;;;6.25;2.88;;;17.30;99.90;;;;;;5070305;28;20038;-55
2023/08/04 08:13:08;;;;;;;6.90;2.92;;;17.20;99.90;;;;;;5070312;28;20012;-51
2023/08/04 08:15:35;;;;;;;5.72;2.88;;;17.20;99.90;;;;;;5070114;28;20043;-54
2023/08/04 08:18:02;;;;;;;10.55;3.15;;;17.20;99.90;;;;;;5070146;28;20031;-53
2023/08/04 08:20:27;;;;;;;7.05;3.03;;;17.20;99.90;;;;;;5068739;28;20389;-53
2023/08/04 08:22:53;;;;;;;8.40;3.53;;;17.10;99.90;;;;;;5068692;28;20021;-52
2023/08/04 08:25:19;;;;;;;8.00;3.28;;;17.20;99.90;;;;;;5070433;28;20024;-53
2023/08/04 08:27:45;;;;;;;7.88;3.15;;;17.30;99.90;;;;;;5068903;28;20020;-54
2023/08/04 08:30:11;;;;;;;7.78;3.00;;;17.50;99.90;;;;;;5069942;28;20421;-55
2023/08/04 08:32:37;;;;;;;7.20;3.00;;;17.60;99.90;;;;;;5069769;28;20162;-55
2023/08/04 08:35:03;;;;;;;5.72;3.05;;;17.80;99.90;;;;;;5069779;28;20135;-59
2023/08/04 08:37:29;;;;;;;4.55;2.50;;;18.00;99.90;;;;;;5067099;28;20133;-55
2023/08/04 08:39:55;;;;;;;6.25;2.97;;;18.30;99.90;;;;;;5064746;28;20437;-57
2023/08/04 08:42:20;;;;;;;8.73;3.22;;;18.50;99.90;;;;;;5069787;28;20021;-51
2023/08/04 08:44:46;;;;;;;7.18;2.53;;;18.70;99.90;;;;;;5069918;28;20035;-54
2023/08/04 08:47:12;;;;;;;7.90;3.30;;;19.00;99.90;;;;;;5069714;28;20378;-54
2023/08/04 08:49:44;;;;;;;6.03;2.33;;;19.10;99.90;;;;;;5068400;28;20370;-56
2023/08/04 08:52:10;;;;;;;7.15;2.65;;;19.20;99.90;;;;;;5069631;28;20043;-56
2023/08/04 08:54:37;;;;;;;6.00;2.50;;;19.30;99.90;;;;;;5069879;28;20485;-53
2023/08/04 08:57:04;;;;;;;6.18;3.15;;;19.30;99.90;;;;;;5069738;28;20036;-54
2023/08/04 08:59:31;;;;;;;5.53;2.90;;;19.40;99.90;;;;;;5069369;28;20044;-54
2023/08/04 09:01:58;;;;;;;4.82;2.85;;;19.40;99.90;;;;;;5069463;28;20036;-56
2023/08/04 09:04:24;;;;;;;7.60;2.60;;;19.50;99.90;;;;;;5069564;28;20028;-54
2023/08/04 09:06:50;;;;;;;6.63;3.00;;;19.60;99.90;;;;;;5062318;28;20035;-56
2023/08/04 09:09:16;;;;;;;5.75;2.65;;;19.80;99.90;;;;;;5059201;28;20111;-54
2023/08/04 09:11:42;;;;;;;4.03;2.28;;;19.90;99.90;;;;;;5061335;28;20115;-54
2023/08/04 09:14:08;;;;;;;5.07;2.38;;;19.90;99.90;;;;;;5059498;28;20462;-57
2023/08/04 09:16:39;;;;;;;5.15;2.35;;;20.40;99.90;;;;;;5069297;28;20105;-55
2023/08/04 09:19:06;;;;;;;4.38;2.42;;;21.10;99.90;;;;;;5069242;28;20103;-56
2023/08/04 09:21:32;;;;;;;4.72;2.20;;;21.50;99.90;;;;;;5069434;28;20025;-55
2023/08/04 09:23:58;;;;;;;4.32;2.20;;;21.60;99.90;;;;;;5069230;28;20516;-57
2023/08/04 09:26:24;;;;;;;4.30;2.22;;;21.60;99.90;;;;;;5068876;28;20024;-56
2023/08/04 09:29:06;;;;;;;3.40;2.20;;;21.70;99.90;;;;;;5062023;28;20039;-54
2023/08/04 09:31:36;;;;;;;4.10;2.00;;;21.80;99.90;;;;;;5069144;28;20036;-55
2023/08/04 09:34:04;;;;;;;3.67;1.80;;;22.10;99.90;;;;;;5073311;28;20060;-51
2023/08/04 09:36:30;;;;;;;2.60;1.90;;;22.60;99.90;;;;;;5073241;28;20095;-56
2023/08/04 09:39:04;;;;;;;2.90;1.83;;;22.80;99.90;;;;;;5073529;28;20074;-53
2023/08/04 09:41:33;;;;;;;3.85;2.13;;;22.70;99.90;;;;;;5073358;28;20474;-52
2023/08/04 09:44:03;;;;;;;;;;;22.50;99.90;;;;;;5073827;28;20037;-51
2023/08/04 09:46:28;;;;;;;5.50;2.45;;;22.60;99.90;;;;;;5073423;28;19912;-52
2023/08/04 09:48:58;;;;;;;4.38;2.58;;;22.40;99.90;;;;;;5072932;28;20021;-56
2023/08/04 09:51:24;;;;;;;8.13;2.30;;;22.30;99.90;;;;;;5072875;28;20051;-55
2023/08/04 09:53:54;;;;;;;4.05;1.80;;;22.30;99.90;;;;;;5072708;28;20024;-52
2023/08/04 09:56:21;;;;;;;4.47;2.10;;;22.10;99.90;;;;;;5073045;28;20032;-55
2023/08/04 09:58:48;;;;;;;6.05;2.08;;;21.80;99.90;;;;;;5072717;28;20455;-56
2023/08/04 10:01:15;;;;;;;3.55;2.05;;;21.60;99.90;;;;;;5072869;28;20067;-51
2023/08/04 10:03:53;;;;;;;3.10;2.30;;;21.50;99.90;;;;;;5072800;28;20032;-53
2023/08/04 10:06:20;;;;;;;3.38;1.98;;;21.80;99.90;;;;;;5071765;28;20449;-52
2023/08/04 10:08:48;;;;;;;3.70;1.92;;;22.10;99.90;;;;;;5070747;28;20036;-55
2023/08/04 10:11:14;;;;;;;2.67;1.77;;;22.70;99.90;;;;;;5070813;28;20440;-54
2023/08/04 10:13:43;;;;;;;3.40;2.10;;;23.30;99.90;;;;;;5071248;28;20067;-53
2023/08/04 10:16:14;;;;;;;3.15;1.65;;;24.00;99.90;;;;;;5070558;28;20043;-53
2023/08/04 10:18:53;;;;;;;6.22;1.85;;;23.90;99.90;;;;;;5069559;28;20043;-55
2023/08/04 10:21:35;;;;;;;4.18;2.08;;;23.50;99.90;;;;;;5071678;28;20173;-56
2023/08/04 10:24:02;;;;;;;3.20;1.88;;;23.10;99.90;;;;;;5071474;28;20619;-57
2023/08/04 10:26:32;;;;;;;5.25;1.83;;;22.60;99.90;;;;;;5072667;28;20024;-57
2023/08/04 10:29:06;;;;;;;3.92;1.85;;;22.60;99.90;;;;;;5072625;28;20028;-57
2023/08/04 10:31:51;;;;;;;2.50;1.88;;;22.70;99.90;;;;;;5072365;28;20409;-56
2023/08/04 10:34:17;;;;;;;2.75;1.55;;;22.80;99.90;;;;;;5072156;28;20041;-52
2023/08/04 10:36:54;;;;;;;5.22;1.80;;;23.20;99.90;;;;;;5072400;28;20032;-54
2023/08/04 10:39:28;;;;;;;3.28;1.60;;;23.90;99.90;;;;;;5071978;28;20089;-56
2023/08/04 10:41:53;;;;;;;3.17;1.80;;;24.10;99.90;;;;;;5071121;28;20021;-58
2023/08/04 10:44:19;;;;;;;3.30;1.70;;;24.50;99.90;;;;;;5071518;28;20028;-56
2023/08/04 10:46:47;;;;;;;3.83;1.90;;;24.50;99.90;;;;;;5071700;28;20022;-56
2023/08/04 10:49:13;;;;;;;5.28;1.67;;;24.30;99.90;;;;;;5072225;28;20024;-57
2023/08/04 10:51:40;;;;;;;4.30;2.15;;;23.90;99.90;;;;;;5071773;28;20591;-57
2023/08/04 10:54:05;;;;;;;4.90;1.55;;;23.70;99.90;;;;;;5072223;28;20028;-55
2023/08/04 10:56:31;;;;;;;4.85;1.80;;;23.30;99.90;;;;;;5071870;28;20059;-54
2023/08/04 10:58:57;;;;;;;3.13;1.45;;;22.80;99.90;;;;;;5072142;28;20055;-54
2023/08/04 11:01:26;;;;;;;4.88;2.30;;;22.50;99.90;;;;;;5071978;28;20082;-54
2023/08/04 11:03:53;;;;;;;2.78;1.65;;;22.40;99.90;;;;;;5071624;28;20484;-56
2023/08/04 11:06:19;;;;;;;3.72;1.60;;;22.30;99.90;;;;;;5059768;28;20032;-53
2023/08/04 11:08:45;;;;;;;3.28;1.63;;;22.30;99.90;;;;;;5071525;28;20032;-55
2023/08/04 11:11:12;;;;;;;4.10;1.75;;;22.50;99.90;;;;;;5068185;28;20119;-54
2023/08/04 11:13:38;;;;;;;3.58;1.92;;;22.60;99.90;;;;;;5067447;28;20028;-55
2023/08/04 11:16:04;;;;;;;2.70;1.70;;;22.80;99.90;;;;;;5071571;28;20485;-54
2023/08/04 11:18:31;;;;;;;4.30;2.25;;;22.70;99.90;;;;;;5071009;28;20104;-52
2023/08/04 11:21:03;;;;;;;3.80;1.67;;;22.60;99.90;;;;;;5071167;28;20393;-56
2023/08/04 11:23:30;;;;;;;3.10;1.77;;;22.50;99.90;;;;;;5069877;28;20032;-56
2023/08/04 11:25:57;;;;;;;3.33;1.80;;;22.80;99.90;;;;;;5071003;28;20534;-56
2023/08/04 11:28:24;;;;;;;3.20;1.90;;;23.10;99.90;;;;;;5071302;28;20031;-55
2023/08/04 11:30:49;;;;;;;3.53;1.90;;;23.70;99.90;;;;;;5072739;28;20044;-53
2023/08/04 11:33:16;;;;;;;3.15;1.55;;;23.80;99.90;;;;;;5091867;28;20020;-50
2023/08/04 11:35:46;;;;;;;3.85;1.70;;;24.00;99.90;;;;;;5082672;28;20539;-50
2023/08/04 11:38:12;;;;;;;3.78;1.60;;;24.10;99.90;;;;;;5071074;28;20074;-53
2023/08/04 11:40:57;;;;;;;3.97;1.63;;;24.00;99.90;;;;;;5071279;28;20115;-56
2023/08/04 11:43:23;;;;;;;2.35;1.70;;;24.30;99.90;;;;;;5071036;28;20028;-59
2023/08/04 11:45:49;;;;;;;3.55;1.70;;;24.80;99.90;;;;;;5070152;28;20033;-54
2023/08/04 11:48:16;;;;;;;3.28;1.63;;;25.40;99.90;;;;;;5069002;28;20035;-50
2023/08/04 11:50:42;;;;;;;2.03;1.50;;;25.60;99.90;;;;;;5068956;28;20039;-53
2023/08/04 11:53:08;;;;;;;4.85;1.55;;;25.10;99.90;;;;;;5069422;28;20020;-54
2023/08/04 11:55:34;;;;;;;2.95;1.52;;;24.50;99.90;;;;;;5068567;28;20025;-53
2023/08/04 11:57:59;;;;;;;4.90;1.60;;;24.30;99.90;;;;;;5067939;28;20079;-52
2023/08/04 12:00:33;;;;;;;3.15;1.52;;;24.00;99.90;;;;;;5069097;28;20044;-55
2023/08/04 12:03:00;;;;;;;3.38;1.42;;;23.60;99.90;;;;;;5070964;28;20055;-50
2023/08/04 12:05:33;;;;;;;2.85;1.83;;;23.50;99.90;;;;;;5070546;28;20028;-56
2023/08/04 12:08:11;;;;;;;2.83;1.48;;;23.60;99.90;;;;;;5070417;28;20024;-51
2023/08/04 12:10:37;;;;;;;2.20;1.30;;;23.70;99.90;;;;;;5070455;28;20307;-53
2023/08/04 12:13:03;;;;;;;3.58;1.48;;;23.70;99.90;;;;;;5069933;28;20513;-52
2023/08/04 12:15:28;;;;;;;2.20;1.48;;;23.80;99.90;;;;;;5070702;28;20394;-54
2023/08/04 12:17:54;;;;;;;3.58;1.60;;;23.90;99.90;;;;;;5070545;28;20025;-56
2023/08/04 12:20:20;;;;;;;4.88;1.55;;;23.70;99.90;;;;;;5070237;28;20046;-53
2023/08/04 12:22:46;;;;;;;2.78;1.40;;;23.60;99.90;;;;;;5070304;28;20106;-54
2023/08/04 12:25:12;;;;;;;4.05;1.60;;;23.90;99.90;;;;;;5070348;28;20029;-48
2023/08/04 12:27:39;;;;;;;2.50;1.58;;;24.30;99.90;;;;;;5069983;28;20016;-50
2023/08/04 12:30:06;;;;;;;2.83;1.40;;;24.70;99.90;;;;;;5070034;28;20416;-55
2023/08/04 12:32:31;;;;;;;3.05;1.60;;;24.90;99.90;;;;;;5069939;28;20509;-54
2023/08/04 12:34:57;;;;;;;2.10;1.48;;;25.20;99.90;;;;;;5085940;28;20131;-54
2023/08/04 12:37:25;;;;;;;4.63;2.10;;;25.60;99.90;;;;;;5070288;28;20024;-52
2023/08/04 12:39:51;;;;;;;3.75;1.88;;;25.70;99.90;;;;;;5069997;28;20136;-52
2023/08/04 12:42:16;;;;;;;2.55;1.83;;;25.90;99.90;;;;;;5069683;28;20366;-52
2023/08/04 12:44:42;;;;;;;2.97;1.58;;;25.90;99.90;;;;;;5069953;28;20028;-55